createdAt,value
2023-02-24T00:01:23.736Z,29.08
2023-02-24T00:06:36.068Z,28.35
2023-02-24T00:11:43.702Z,27.80
2023-02-24T00:16:49.342Z,29.27
2023-02-24T00:21:54.331Z,27.77
2023-02-24T00:27:00.413Z,27.58
2023-02-24T00:32:13.380Z,25.10
2023-02-24T00:42:20.477Z,25.23
2023-02-24T00:47:25.657Z,27.92
2023-02-24T00:52:29.097Z,26.25
2023-02-24T00:57:33.332Z,24.95
2023-02-24T01:02:38.313Z,25.20
2023-02-24T01:07:42.073Z,24.45
2023-02-24T01:12:53.988Z,22.75
2023-02-24T01:17:58.816Z,24.02
2023-02-24T01:23:03.495Z,23.23
2023-02-24T01:28:06.970Z,22.85
2023-02-24T01:33:14.727Z,23.65
2023-02-24T01:38:23.076Z,23.30
2023-02-24T01:43:26.711Z,24.60
2023-02-24T01:48:31.808Z,22.20
2023-02-24T01:53:35.270Z,23.35
2023-02-24T01:58:38.726Z,22.27
2023-02-24T02:03:45.641Z,23.40
2023-02-24T02:08:49.379Z,22.33
2023-02-24T02:13:54.349Z,23.55
2023-02-24T02:19:10.767Z,24.08
2023-02-24T02:24:32.635Z,24.08
2023-02-24T02:30:18.007Z,22.92
2023-02-24T02:35:25.785Z,23.60
2023-02-24T02:40:38.003Z,23.30
2023-02-24T02:45:47.798Z,21.85
2023-02-24T02:50:55.797Z,22.33
2023-02-24T02:56:03.775Z,23.55
2023-02-24T03:01:08.920Z,23.40
2023-02-24T03:06:19.177Z,22.45
2023-02-24T03:11:24.154Z,21.70
2023-02-24T03:16:28.434Z,24.30
2023-02-24T03:21:38.136Z,23.10
2023-02-24T03:26:49.294Z,22.77
2023-02-24T03:31:59.507Z,24.65
2023-02-24T03:37:04.784Z,23.58
2023-02-24T03:42:13.516Z,24.48
2023-02-24T03:47:20.483Z,24.98
2023-02-24T03:52:34.990Z,23.33
2023-02-24T03:57:56.230Z,24.20
2023-02-24T04:03:07.523Z,24.55
2023-02-24T04:08:12.660Z,24.80
2023-02-24T04:13:22.234Z,23.02
2023-02-24T04:18:28.507Z,24.42
2023-02-24T04:23:38.732Z,22.38
2023-02-24T04:28:44.030Z,23.08
2023-02-24T04:33:50.445Z,22.17
2023-02-24T04:38:56.009Z,23.70
2023-02-24T04:43:59.402Z,23.33
2023-02-24T04:49:02.944Z,22.60
2023-02-24T04:54:08.511Z,22.23
2023-02-24T04:59:13.501Z,22.90
2023-02-24T05:04:17.049Z,22.02
2023-02-24T05:09:22.320Z,23.00
2023-02-24T05:14:26.373Z,22.38
2023-02-24T05:19:47.592Z,22.38
2023-02-24T05:24:52.434Z,21.98
2023-02-24T05:29:56.555Z,23.02
2023-02-24T05:35:00.106Z,23.80
2023-02-24T05:40:06.491Z,24.17
2023-02-24T05:45:11.158Z,22.60
2023-02-24T05:50:14.740Z,22.73
2023-02-24T05:55:20.276Z,22.45
2023-02-24T06:00:25.968Z,25.23
2023-02-24T06:05:29.379Z,27.15
2023-02-24T06:10:35.031Z,22.67
2023-02-24T06:15:38.703Z,23.13
2023-02-24T06:20:42.140Z,22.23
2023-02-24T06:25:47.429Z,20.08
2023-02-24T06:30:50.879Z,19.13
2023-02-24T06:35:54.455Z,16.05
2023-02-24T06:41:00.618Z,14.45
2023-02-24T06:46:06.089Z,13.05
2023-02-24T06:51:13.712Z,11.88
2023-02-24T06:56:19.935Z,11.38
2023-02-24T07:01:26.737Z,12.00
2023-02-24T07:06:30.952Z,11.75
2023-02-24T07:11:37.236Z,13.88
2023-02-24T07:16:45.325Z,13.77
2023-02-24T07:21:52.766Z,14.25
2023-02-24T07:26:59.439Z,13.18
2023-02-24T07:32:05.674Z,13.75
2023-02-24T07:37:10.381Z,16.25
2023-02-24T07:42:15.456Z,15.13
2023-02-24T07:47:18.860Z,15.20
2023-02-24T07:52:22.718Z,14.25
2023-02-24T07:57:28.952Z,17.50
2023-02-24T08:02:32.360Z,15.65
2023-02-24T08:07:36.269Z,14.95
2023-02-24T08:12:43.792Z,15.55
2023-02-24T08:17:47.826Z,15.50
2023-02-24T08:22:55.712Z,14.52
2023-02-24T08:28:09.260Z,14.60
2023-02-24T08:33:17.467Z,15.07
2023-02-24T08:38:26.441Z,13.90
2023-02-24T08:43:33.626Z,15.07
2023-02-24T08:48:42.304Z,13.18
2023-02-24T08:53:47.349Z,13.27
2023-02-24T08:58:57.181Z,13.70
2023-02-24T09:04:01.688Z,12.52
2023-02-24T09:09:19.106Z,10.88
2023-02-24T09:14:42.819Z,11.40
2023-02-24T09:20:06.448Z,10.65
2023-02-24T09:25:25.927Z,10.82
2023-02-24T09:30:51.234Z,10.82
2023-02-24T09:36:03.394Z,11.15
2023-02-24T09:41:29.954Z,10.32
2023-02-24T09:46:40.973Z,10.35
2023-02-24T09:51:45.252Z,11.00
2023-02-24T09:57:08.485Z,10.80
2023-02-24T10:02:29.255Z,9.57
2023-02-24T10:07:38.574Z,9.27
2023-02-24T10:12:42.516Z,9.70
2023-02-24T10:17:55.409Z,8.18
2023-02-24T10:23:04.378Z,8.65
2023-02-24T10:28:23.084Z,7.90
2023-02-24T10:33:37.877Z,7.72
2023-02-24T10:38:45.561Z,7.57
2023-02-24T10:43:59.290Z,7.43
2023-02-24T10:54:34.266Z,7.15
2023-02-24T10:59:58.584Z,5.75
2023-02-24T11:05:38.090Z,6.00
2023-02-24T11:10:53.351Z,4.95
2023-02-24T11:16:14.702Z,5.35
2023-02-24T11:21:21.180Z,5.53
2023-02-24T11:26:28.387Z,5.20
2023-02-24T11:31:51.941Z,6.05
2023-02-24T11:37:06.613Z,5.93
2023-02-24T11:42:14.844Z,5.22
2023-02-24T11:47:23.048Z,4.85
2023-02-24T11:52:34.120Z,5.78
2023-02-24T11:57:43.236Z,5.80
2023-02-24T12:02:52.836Z,5.63
2023-02-24T12:08:03.252Z,5.18
2023-02-24T12:13:29.318Z,6.10
2023-02-24T12:18:35.629Z,6.63
2023-02-24T12:23:43.956Z,6.22
2023-02-24T12:29:18.794Z,7.28
2023-02-24T12:34:36.952Z,7.50
2023-02-24T12:39:48.759Z,6.38
2023-02-24T12:45:02.249Z,5.32
2023-02-24T12:50:18.464Z,6.25
2023-02-24T12:55:28.010Z,5.20
2023-02-24T13:00:41.923Z,5.00
2023-02-24T13:05:51.885Z,4.45
2023-02-24T13:11:09.914Z,4.45
2023-02-24T13:16:29.690Z,3.83
2023-02-24T13:21:34.671Z,3.80
2023-02-24T13:26:40.347Z,3.30
2023-02-24T13:31:46.755Z,3.00
2023-02-24T13:36:51.800Z,3.40
2023-02-24T13:42:06.506Z,3.47
2023-02-24T13:47:45.173Z,3.63
2023-02-24T13:53:23.720Z,3.85
2023-02-24T14:04:14.372Z,4.00
2023-02-24T14:09:22.929Z,4.20
2023-02-24T14:14:28.226Z,3.45
2023-02-24T14:19:33.136Z,4.22
2023-02-24T14:24:38.077Z,4.05
2023-02-24T14:29:44.474Z,3.83
2023-02-24T14:34:49.571Z,3.75
2023-02-24T14:39:54.430Z,4.53
2023-02-24T14:45:00.057Z,4.50
2023-02-24T14:50:07.001Z,4.32
2023-02-24T14:55:17.538Z,4.22
2023-02-24T15:00:24.505Z,4.30
2023-02-24T15:05:29.831Z,4.70
2023-02-24T15:10:33.667Z,5.03
2023-02-24T15:15:39.513Z,4.35
2023-02-24T15:20:44.334Z,5.30
2023-02-24T15:25:48.252Z,5.50
2023-02-24T15:31:02.535Z,5.53
2023-02-24T15:36:17.816Z,5.82
2023-02-24T15:41:21.978Z,5.65
2023-02-24T15:46:29.626Z,5.47
2023-02-24T15:51:40.630Z,5.95
2023-02-24T15:56:45.153Z,5.53
2023-02-24T16:01:49.451Z,6.55
2023-02-24T16:06:56.994Z,4.57
2023-02-24T16:12:03.520Z,4.55
2023-02-24T16:17:11.080Z,4.53
2023-02-24T16:22:16.300Z,4.18
2023-02-24T16:27:22.130Z,4.47
2023-02-24T16:32:28.018Z,7.05
2023-02-24T16:37:33.151Z,4.60
2023-02-24T16:42:37.130Z,4.70
2023-02-24T16:47:41.138Z,5.90
2023-02-24T16:52:45.907Z,6.40
2023-02-24T16:57:49.611Z,5.35
2023-02-24T17:02:54.627Z,5.50
2023-02-24T17:07:59.671Z,5.35
2023-02-24T17:13:03.047Z,5.75
2023-02-24T17:18:07.574Z,5.28
2023-02-24T17:23:13.702Z,5.70
2023-02-24T17:28:17.079Z,5.53
2023-02-24T17:33:20.807Z,5.72
2023-02-24T17:38:26.588Z,6.07
2023-02-24T17:43:30.549Z,5.95
2023-02-24T17:48:34.696Z,7.32
2023-02-24T17:53:39.626Z,7.13
2023-02-24T17:58:44.157Z,6.60
2023-02-24T18:03:47.814Z,9.02
2023-02-24T18:08:52.914Z,8.00
2023-02-24T18:14:00.354Z,8.23
2023-02-24T18:19:04.434Z,6.97
2023-02-24T18:24:10.414Z,6.93
2023-02-24T18:29:13.951Z,7.00
2023-02-24T18:34:17.603Z,7.32
2023-02-24T18:39:24.403Z,7.85
2023-02-24T18:44:27.972Z,8.05
2023-02-24T18:49:32.295Z,7.50
2023-02-24T18:54:37.527Z,10.10
2023-02-24T18:59:41.586Z,7.93
2023-02-24T19:04:45.838Z,9.68
2023-02-24T19:09:50.880Z,9.05
2023-02-24T19:14:54.286Z,8.77
2023-02-24T19:19:58.240Z,7.63
2023-02-24T19:25:03.041Z,7.25
2023-02-24T19:30:07.735Z,6.22
2023-02-24T19:35:11.517Z,4.82
2023-02-24T19:40:16.467Z,4.80
2023-02-24T19:45:20.643Z,5.32
2023-02-24T19:50:24.294Z,6.70
2023-02-24T19:55:29.052Z,5.68
2023-02-24T20:00:32.501Z,5.45
2023-02-24T20:05:37.344Z,6.00
2023-02-24T20:10:42.103Z,5.35
2023-02-24T20:15:45.467Z,6.10
2023-02-24T20:20:48.955Z,5.95
2023-02-24T20:25:55.089Z,7.20
2023-02-24T20:31:00.785Z,6.43
2023-02-24T20:36:09.011Z,6.60
2023-02-24T20:41:14.186Z,7.10
2023-02-24T20:46:19.206Z,7.70
2023-02-24T20:51:23.148Z,8.88
2023-02-24T20:56:29.151Z,8.80
2023-02-24T21:01:36.443Z,9.00
2023-02-24T21:06:40.414Z,7.75
2023-02-24T21:11:45.944Z,8.15
2023-02-24T21:16:49.738Z,9.38
2023-02-24T21:21:53.225Z,9.30
2023-02-24T21:26:58.580Z,9.18
2023-02-24T21:32:03.277Z,9.07
2023-02-24T21:37:07.370Z,10.52
2023-02-24T21:42:12.570Z,10.05
2023-02-24T21:47:16.252Z,10.35
2023-02-24T21:52:19.959Z,9.00
2023-02-24T21:57:24.738Z,9.60
2023-02-24T22:02:28.144Z,10.13
2023-02-24T22:07:31.906Z,9.57
2023-02-24T22:12:36.720Z,8.00
2023-02-24T22:17:41.553Z,7.32
2023-02-24T22:22:44.949Z,7.65
2023-02-24T22:27:49.710Z,7.82
2023-02-24T22:32:53.460Z,7.60
2023-02-24T22:37:57.261Z,7.35
2023-02-24T22:43:02.239Z,7.78
2023-02-24T22:48:05.672Z,7.90
2023-02-24T22:53:10.048Z,6.38
2023-02-24T22:58:15.470Z,6.13
2023-02-24T23:03:21.493Z,5.32
2023-02-24T23:08:25.562Z,4.20
2023-02-24T23:13:30.353Z,4.18
2023-02-24T23:18:35.438Z,3.58
2023-02-24T23:23:39.219Z,4.03
2023-02-24T23:28:44.628Z,3.55
2023-02-24T23:33:48.379Z,4.03
2023-02-24T23:38:52.174Z,4.47
2023-02-24T23:43:57.233Z,3.75
2023-02-24T23:49:00.693Z,3.42
2023-02-24T23:54:04.795Z,4.10
2023-02-24T23:59:09.905Z,4.25
